createdAt,value
2019-05-01T00:05:37.642Z,999.86
2019-05-01T00:15:38.532Z,999.74
2019-05-01T00:25:37.600Z,999.70
2019-05-01T00:35:37.567Z,999.53
2019-05-01T00:45:37.713Z,999.47
2019-05-01T00:55:37.591Z,999.46
2019-05-01T01:05:37.547Z,999.36
2019-05-01T01:15:37.542Z,999.20
2019-05-01T01:25:37.605Z,999.08
2019-05-01T01:35:37.545Z,998.99
2019-05-01T01:45:37.526Z,998.88
2019-05-01T01:55:37.597Z,998.75
2019-05-01T02:05:37.583Z,998.73
2019-05-01T02:15:37.500Z,998.64
2019-05-01T02:25:37.601Z,998.73
2019-05-01T02:35:37.560Z,998.61
2019-05-01T02:45:37.538Z,998.54
2019-05-01T02:55:37.575Z,998.44
2019-05-01T03:05:37.555Z,998.43
2019-05-01T03:15:37.521Z,998.48
2019-05-01T03:25:37.497Z,998.46
2019-05-01T03:35:37.573Z,998.39
2019-05-01T03:45:37.533Z,998.38
2019-05-01T03:55:37.643Z,998.36
2019-05-01T04:05:37.578Z,998.23
2019-05-01T04:15:37.511Z,998.22
2019-05-01T04:25:37.491Z,998.23
2019-05-01T04:35:37.574Z,998.25
2019-05-01T04:45:37.629Z,998.30
2019-05-01T04:55:38.542Z,998.30
2019-05-01T05:05:37.575Z,998.30
2019-05-01T05:15:37.520Z,998.28
2019-05-01T05:25:37.611Z,998.33
2019-05-01T05:35:37.681Z,998.33
2019-05-01T05:45:37.632Z,998.37
2019-05-01T05:55:37.493Z,998.39
2019-05-01T06:05:37.574Z,998.48
2019-05-01T06:15:41.154Z,998.44
2019-05-01T06:25:37.535Z,998.42
2019-05-01T06:35:38.159Z,998.39
2019-05-01T06:45:37.555Z,998.45
2019-05-01T06:55:37.517Z,998.51
2019-05-01T07:05:37.606Z,998.54
2019-05-01T07:15:37.612Z,998.53
2019-05-01T07:25:39.453Z,998.57
2019-05-01T07:35:37.988Z,998.49
2019-05-01T07:45:39.002Z,998.55
2019-05-01T07:55:37.598Z,998.58
2019-05-01T08:05:40.900Z,998.60
2019-05-01T08:15:37.567Z,998.56
2019-05-01T08:25:38.363Z,998.63
2019-05-01T08:35:37.672Z,998.66
2019-05-01T08:45:40.701Z,998.64
2019-05-01T08:55:39.909Z,998.66
2019-05-01T09:05:37.493Z,998.56
2019-05-01T09:15:37.609Z,998.46
2019-05-01T09:25:37.558Z,998.43
2019-05-01T09:35:40.340Z,998.39
2019-05-01T09:45:37.613Z,998.37
2019-05-01T09:55:37.582Z,998.25
2019-05-01T10:05:38.079Z,998.21
2019-05-01T10:15:37.601Z,998.09
2019-05-01T10:25:38.070Z,997.95
2019-05-01T10:35:42.906Z,997.75
2019-05-01T10:45:37.641Z,997.63
2019-05-01T10:55:37.588Z,997.54
2019-05-01T11:05:37.550Z,997.45
2019-05-01T11:15:38.673Z,997.40
2019-05-01T11:25:37.616Z,997.35
2019-05-01T11:35:37.574Z,997.23
2019-05-01T11:45:37.474Z,997.18
2019-05-01T11:55:37.617Z,997.16
2019-05-01T12:05:37.594Z,997.09
2019-05-01T12:15:40.610Z,996.97
2019-05-01T12:25:37.819Z,996.89
2019-05-01T12:35:37.669Z,996.79
2019-05-01T12:45:37.753Z,996.78
2019-05-01T12:55:37.597Z,996.58
2019-05-01T13:05:37.680Z,996.47
2019-05-01T13:15:37.686Z,996.43
2019-05-01T13:25:37.730Z,996.33
2019-05-01T13:35:38.455Z,996.23
2019-05-01T13:45:37.743Z,996.03
2019-05-01T13:55:37.733Z,996.01
2019-05-01T14:05:37.703Z,995.88
2019-05-01T14:15:37.639Z,995.64
2019-05-01T14:25:41.453Z,995.64
2019-05-01T14:35:38.449Z,995.57
2019-05-01T14:45:37.706Z,995.55
2019-05-01T14:55:37.661Z,995.39
2019-05-01T15:05:38.556Z,995.31
2019-05-01T15:15:37.806Z,995.26
2019-05-01T15:25:37.778Z,995.15
2019-05-01T15:35:37.673Z,995.12
2019-05-01T15:45:37.736Z,995.14
2019-05-01T15:55:38.419Z,995.02
2019-05-01T16:05:37.617Z,994.83
2019-05-01T16:15:38.045Z,994.80
2019-05-01T16:25:38.622Z,994.66
2019-05-01T16:35:37.669Z,994.62
2019-05-01T16:45:37.739Z,994.60
2019-05-01T16:55:37.697Z,994.48
2019-05-01T17:05:37.772Z,994.52
2019-05-01T17:15:37.741Z,994.44
2019-05-01T17:25:37.807Z,994.41
2019-05-01T17:35:41.650Z,994.37
2019-05-01T17:45:37.763Z,994.34
2019-05-01T17:55:38.325Z,994.46
2019-05-01T18:05:37.669Z,994.37
2019-05-01T18:15:37.755Z,994.33
2019-05-01T18:25:37.725Z,994.35
2019-05-01T18:35:37.780Z,994.36
2019-05-01T18:45:37.773Z,994.37
2019-05-01T18:55:37.846Z,994.36
2019-05-01T19:05:37.664Z,994.41
2019-05-01T19:15:37.751Z,994.48
2019-05-01T19:25:37.703Z,994.46
2019-05-01T19:35:37.703Z,994.51
2019-05-01T19:45:37.744Z,994.49
2019-05-01T19:55:39.953Z,994.63
2019-05-01T20:05:37.683Z,994.62
2019-05-01T20:15:37.756Z,994.62
2019-05-01T20:25:37.822Z,994.63
2019-05-01T20:35:37.707Z,994.64
2019-05-01T20:45:37.871Z,994.64
2019-05-01T20:55:37.740Z,994.55
2019-05-01T21:05:37.694Z,994.54
2019-05-01T21:15:37.770Z,994.51
2019-05-01T21:25:37.723Z,994.56
2019-05-01T21:35:37.692Z,994.48
2019-05-01T21:45:37.659Z,994.48
2019-05-01T21:55:37.683Z,994.41
2019-05-01T22:05:39.607Z,994.41
2019-05-01T22:15:42.103Z,994.37
2019-05-01T22:25:37.674Z,994.42
2019-05-01T22:35:37.757Z,994.26
2019-05-01T22:45:37.692Z,994.33
2019-05-01T22:55:37.774Z,994.31
2019-05-01T23:05:37.736Z,994.27
2019-05-01T23:15:37.790Z,994.20
2019-05-01T23:25:41.243Z,994.20
2019-05-01T23:35:37.732Z,994.04
2019-05-01T23:45:37.696Z,993.98
2019-05-01T23:55:37.772Z,993.83
